Aviation Digital Data Service (ADDS)

Output produced by METARs form (1840 UTC 22 May 2019)
found at http://aviationweather.gov/metar/data/
 
TAF ETNT 221600Z 2217/2302 29012G22KT 9999 NSW SCT025 BY ETGL